Home > Products > Valid Products > MTR

000
SAUS43 KAPX 280855
MTRAPN
METAR KAPN 280854Z AUTO 00000KT 10SM CLR 08/07 A3016 RMK AO2 SLP214
T00830067 53001





000
SAUS43 KAPX 280756
MTRAPN
METAR KAPN 280754Z AUTO 28003KT 10SM CLR 08/07 A3016 RMK AO2 SLP214
T00830067





000
SAUS43 KAPX 280655
MTRAPN
METAR KAPN 280654Z AUTO 29004KT 10SM CLR 09/07 A3015 RMK AO2 SLP211
T00890072





000
SAUS43 KAPX 280555
MTRAPN
METAR KAPN 280554Z AUTO 28004KT 10SM CLR 09/07 A3015 RMK AO2 SLP213
T00940072 10178 20094 50002





000
SAUS43 KAPX 280455
MTRAPN
METAR KAPN 280454Z AUTO 29003KT 10SM CLR 11/08 A3017 RMK AO2 SLP216
T01060078 402170100





000
SAUS43 KAPX 280355
MTRAPN
METAR KAPN 280354Z AUTO 31004KT 10SM CLR 11/08 A3016 RMK AO2 SLP214
T01110078





000
SAUS43 KAPX 280255
MTRAPN
METAR KAPN 280254Z AUTO 30003KT 10SM CLR 12/08 A3015 RMK AO2 SLP211
T01170083 50007





000
SAUS43 KAPX 280155
MTRAPN
METAR KAPN 280154Z AUTO 32005KT 10SM CLR 13/09 A3015 RMK AO2 SLP212
T01330089





000
SAUS43 KAPX 280055
MTRAPN
METAR KAPN 280054Z AUTO 36007KT 10SM SCT047 14/09 A3014 RMK AO2
SLP208 T01440094





000
SAUS43 KAPX 272355
MTRAPN
METAR KAPN 272354Z AUTO 31007KT 10SM OVC046 18/09 A3013 RMK AO2
SLP204 T01780094 10217 20178 53002





000
SAUS43 KAPX 272255
MTRAPN
METAR KAPN 272254Z AUTO 29006KT 10SM FEW045 18/08 A3012 RMK AO2
SLP202 T01830083





000
SAUS43 KAPX 272155
MTRAPN
METAR KAPN 272154Z AUTO 34013G20KT 10SM FEW048 19/09 A3012 RMK AO2
SLP201 T01940089





000
SAUS43 KAPX 272056 COR
MTRAPN
METAR KAPN 272054Z AUTO 32013G20KT 10SM BKN048 21/09 A3012 RMK AO2
SLP201 T02110089 55004





000
SAUS43 KAPX 272055
MTRAPN
METAR KAPN 272054Z AUTO 32013G20KT 10SM BKN048 21/09 A3012 RMK AO2
SLP201 T02110089 55004





000
SAUS43 KAPX 271955
MTRAPN
METAR KAPN 271954Z AUTO 31008G18KT 10SM BKN046 21/09 A3012 RMK AO2
SLP200 T02060089





000
SAUS43 KAPX 271855
MTRAPN
METAR KAPN 271854Z AUTO 32009G15KT 290V350 10SM SCT043 22/09 A3012
RMK AO2 SLP200 T02170094





000
SAUS43 KAPX 271755
MTRAPN
METAR KAPN 271754Z AUTO 29008KT 10SM BKN043 20/10 A3013 RMK AO2
SLP205 60000 T02000100 10200 20122 58006





000
SAUS43 KAPX 271655
MTRAPN
METAR KAPN 271654Z AUTO 32012G18KT 10SM BKN036 BKN043 18/10 A3015
RMK AO2 SLP212 T01830100





000
SAUS43 KAPX 271555
MTRAPN
METAR KAPN 271554Z AUTO 30008KT 10SM SCT110 18/11 A3015 RMK AO2
RAE00 SLP211 P0000 T01780106





000
SAUS43 KAPX 271456 COR
MTRAPN
METAR KAPN 271454Z AUTO 26006KT 10SM -RA FEW045 SCT060 BKN120 16/12
A3015 RMK AO2 RAE1358B48 SLP212 P0000 60000 T01560117 51006





000
SAUS43 KAPX 271355
MTRAPN
METAR KAPN 271354Z AUTO 26005KT 10SM -RA FEW046 SCT095 SCT110 14/12
A3014 RMK AO2 RAB48 SLP209 P0000 T01440117





000
SAUS43 KAPX 271255
MTRAPN
METAR KAPN 271254Z AUTO 27005KT 10SM CLR 14/11 A3015 RMK AO2 SLP210
T01390111





000
SAUS43 KAPX 271155
MTRAPN
METAR KAPN 271154Z AUTO 28005KT 10SM CLR 12/11 A3013 RMK AO2 SLP205
T01220111 10122 20100 51003





000
SAUS43 KAPX 271055
MTRAPN
METAR KAPN 271054Z AUTO 30004KT 10SM CLR 12/11 A3013 RMK AO2 SLP203
T01220111





000
SAUS43 KAPX 270955
MTRAPN
METAR KAPN 270954Z AUTO 27004KT 10SM CLR 12/11 A3013 RMK AO2 SLP203
T01220111





000
SAUS43 KAPX 270955
MTRAPN
METAR KAPN 270954Z AUTO 27004KT 10SM CLR 12/11 A3013 RMK AO2 SLP203
T01220111





000
SAUS43 KAPX 270855
MTRAPN
METAR KAPN 270854Z AUTO 25004KT 10SM SCT036 12/11 A3013 RMK AO2
SLP201 T01170111 50003





000
SAUS43 KAPX 270756
MTRAPN
METAR KAPN 270754Z AUTO 10SM CLR 12/11 A3013 RMK AO2 SLP201
T01220106





000
SAUS43 KAPX 270655
MTRAPN
METAR KAPN 270654Z AUTO 00000KT 10SM CLR 11/10 A3012 RMK AO2 SLP199
T01110100





000
SAUS43 KAPX 270555
MTRAPN
METAR KAPN 270554Z AUTO 30003KT 10SM CLR 12/11 A3012 RMK AO2 SLP198
T01220106 10189 20117 51009





000
SAUS43 KAPX 270455
MTRAPN
METAR KAPN 270454Z AUTO 00000KT 10SM CLR 12/11 A3011 RMK AO2 SLP196
T01170106 402670117





000
SAUS43 KAPX 270355
MTRAPN
METAR KAPN 270354Z AUTO 32003KT 10SM SCT035 13/12 A3010 RMK AO2
SLP193 T01330117





000
SAUS43 KAPX 270255
MTRAPN
METAR KAPN 270254Z AUTO 33005KT 10SM FEW029 14/12 A3009 RMK AO2
SLP188 T01440117 51014





000
SAUS43 KAPX 270155
MTRAPN
METAR KAPN 270154Z AUTO 34008KT 10SM CLR 16/12 A3008 RMK AO2 SLP185
T01560122





000
SAUS43 KAPX 270055
MTRAPN
METAR KAPN 270054Z AUTO 35008KT 10SM CLR 17/13 A3007 RMK AO2 SLP181
T01670128





000
SAUS43 KAPX 262355
MTRAPN
METAR KAPN 262354Z AUTO 35012KT 10SM CLR 19/14 A3005 RMK AO2 SLP173
T01890139 10267 20189 51012





000
SAUS43 KAPX 262255
MTRAPN
METAR KAPN 262254Z AUTO 33008KT 10SM CLR 22/15 A3004 RMK AO2 SLP170
T02220150





000
SAUS43 KAPX 262155
MTRAPN
METAR KAPN 262154Z AUTO 35010KT 10SM CLR 22/14 A3003 RMK AO2 SLP168
T02170144





000
SAUS43 KAPX 262056 COR
MTRAPN
METAR KAPN 262054Z AUTO 35009KT 10SM CLR 24/16 A3001 RMK AO2 SLP160
T02390156 58006





000
SAUS43 KAPX 262055
MTRAPN
METAR KAPN 262054Z AUTO 35009KT 10SM CLR 24/16 A3001 RMK AO2 SLP160
T02390156 58006





000
SAUS43 KAPX 261956
MTRAPN
METAR KAPN 261954Z AUTO 02010KT 10SM CLR 24/16 A3002 RMK AO2 SLP162
T02440156





000
SAUS43 KAPX 261855
MTRAPN
METAR KAPN 261854Z AUTO 03007KT 10SM SCT026 BKN032 24/16 A3003 RMK
AO2 SLP166 T02390156





000
SAUS43 KAPX 261829
MTRAPN
SPECI KAPN 261827Z AUTO 26006KT 10SM SCT029 26/19 A3003 RMK AO2
T02610189





000
SAUS43 KAPX 261756 COR
MTRAPN
METAR KAPN 261754Z AUTO VRB03KT 10SM SCT024 OVC031 25/19 A3003 RMK
AO2 SLP165 T02500194 10250 20200 58001





000
SAUS43 KAPX 261656
MTRAPN
METAR KAPN 261654Z AUTO VRB05KT 10SM OVC016 23/19 A3003 RMK AO2
SLP166 T02330189





000
SAUS43 KAPX 261630
MTRAPN
SPECI KAPN 261629Z AUTO VRB04KT 10SM OVC015 23/19 A3003 RMK AO2
T02330194





000
SAUS43 KAPX 261556
MTRAPN
METAR KAPN 261554Z AUTO 26005KT 10SM OVC012 23/19 A3003 RMK AO2
SLP168 T02280194





000
SAUS43 KAPX 261551
MTRAPN
SPECI KAPN 261550Z AUTO 29005KT 10SM OVC012 23/19 A3003 RMK AO2





000
SAUS43 KAPX 261455
MTRAPN
METAR KAPN 261454Z AUTO 31003KT 10SM OVC008 22/20 A3003 RMK AO2 CIG
006V013 SLP165 T02220200 51000





000
SAUS43 KAPX 261438
MTRAPN
SPECI KAPN 261436Z AUTO 30003KT 10SM BKN006 OVC011 22/20 A3002 RMK
AO2 CIG 004V008 T02220200





000
SAUS43 KAPX 261355
MTRAPN
METAR KAPN 261354Z AUTO 32004KT 5SM BR OVC003 22/21 A3003 RMK AO2
SLP166 T02170206





000
SAUS43 KAPX 261321
MTRAPN
SPECI KAPN 261319Z AUTO 00000KT 3SM BR OVC004 21/21 A3002 RMK AO2
T02110206





000
SAUS43 KAPX 261304
MTRAPN
SPECI KAPN 261303Z AUTO 27003KT 2SM BR OVC005 21/21 A3003 RMK AO2
CIG 003V008 T02060206 TSNO





000
SAUS43 KAPX 261255
MTRAPN
METAR KAPN 261254Z AUTO 26003KT 1 1/2SM BR OVC007 21/20 A3003 RMK
AO2 CIG 004V009 SLP166 T02060200





000
SAUS43 KAPX 261230
MTRAPN
SPECI KAPN 261228Z AUTO 26003KT 1 1/4SM BR OVC009 21/20 A3003 RMK
AO2 T02060200





000
SAUS43 KAPX 261204
MTRAPN
SPECI KAPN 261203Z AUTO 00000KT 1 1/2SM BR OVC010 20/20 A3002 RMK
AO2 T02000200 TSNO





000
SAUS43 KAPX 261155
MTRAPN
METAR KAPN 261154Z AUTO 00000KT 2 1/2SM BR OVC011 20/19 A3003 RMK
AO2 VIS 1 1/2 RY 19 SLP165 70013 T02000194 10222 20167 50017





000
SAUS43 KAPX 261142
MTRAPN
SPECI KAPN 261141Z AUTO 00000KT 2SM BR OVC011 20/19 A3002 RMK AO2
T02000189





000
SAUS43 KAPX 261055
MTRAPN
METAR KAPN 261054Z AUTO 00000KT 7SM BKN014 19/18 A3000 RMK AO2
SLP155 T01890178





000
SAUS43 KAPX 261043
MTRAPN
SPECI KAPN 261041Z AUTO 00000KT 3SM BR BKN014 18/17 A2999 RMK AO2
T01780172





000
SAUS43 KAPX 261034
MTRAPN
SPECI KAPN 261033Z AUTO 00000KT 5SM BR SCT015 SCT030 17/17 A2999 RMK
AO2 VIS 1 1/2 RY 19 T01720172





000
SAUS43 KAPX 261027
MTRAPN
SPECI KAPN 261026Z AUTO 22003KT 2SM BR FEW015 18/17 A2999 RMK AO2
T01780172





000
SAUS43 KAPX 261024
MTRAPN
SPECI KAPN 261023Z AUTO 00000KT 1SM BR VV015 17/16 A2998 RMK AO2
T01670161





000
SAUS43 KAPX 261018
MTRAPN
SPECI KAPN 261017Z AUTO 35004KT 3/4SM BR VV014 17/17 A2999 RMK AO2
VIS 1/2V4 T01670167 TSNO





000
SAUS43 KAPX 261015
MTRAPN
SPECI KAPN 261014Z AUTO 36005KT 1 1/2SM BR CLR 17/17 A2999 RMK AO2
VIS 1/2V5 T01720172





000
SAUS43 KAPX 260955
MTRAPN
METAR KAPN 260954Z AUTO 23003KT 4SM BR CLR 19/18 A2998 RMK AO2 VIS
1/4 RY 19 SLP148 T01890183





000
SAUS43 KAPX 260938
MTRAPN
SPECI KAPN 260937Z AUTO 00000KT 1 3/4SM BR CLR 18/18 A2997 RMK AO2
VIS 1V3 T01830183





000
SAUS43 KAPX 260855
MTRAPN
METAR KAPN 260854Z AUTO 23003KT 6SM BR CLR 21/20 A2998 RMK AO2
SLP148 T02060200 53001





000
SAUS43 KAPX 260835
MTRAPN
SPECI KAPN 260833Z AUTO 23004KT 3SM BR CLR 19/19 A2998 RMK AO2
T01940194 TSNO





000
SAUS43 KAPX 260819
MTRAPN
SPECI KAPN 260818Z AUTO 23003KT 3/4SM BR CLR 18/18 A2997 RMK AO2
T01830183





000
SAUS43 KAPX 260755
MTRAPN
METAR KAPN 260754Z AUTO 00000KT 2 1/2SM BR CLR 19/19 A2997 RMK AO2
VIS 1/2 RY 19 SLP148 T01940194





000
SAUS43 KAPX 260729
MTRAPN
SPECI KAPN 260728Z AUTO 20003KT 3SM BR CLR 19/19 A2997 RMK AO2 VIS
1/4 RY 19 T01940194





000
SAUS43 KAPX 260700
MTRAPN
SPECI KAPN 260659Z AUTO 21003KT 1 3/4SM BR CLR 20/20 A2997 RMK AO2
VIS 1V4 T02000200





000
SAUS43 KAPX 260655
MTRAPN
METAR KAPN 260654Z AUTO 20003KT 3SM BR CLR 21/21 A2997 RMK AO2
SLP145 T02060206





000
SAUS43 KAPX 260555
MTRAPN
METAR KAPN 260554Z AUTO 21006KT 8SM CLR 22/22 A2997 RMK AO2 SLP147
T02220217 10233 20189 53001





000
SAUS43 KAPX 260529
MTRAPN
SPECI KAPN 260528Z AUTO 20004KT 3SM BR CLR 19/19 A2997 RMK AO2 VIS 1
1/2 RY 19 T01940189





000
SAUS43 KAPX 260523
MTRAPN
SPECI KAPN 260521Z AUTO 19004KT 1 3/4SM BR CLR 19/19 A2997 RMK AO2
T01890189





000
SAUS43 KAPX 260455
MTRAPN
METAR KAPN 260454Z AUTO 00000KT 7SM FEW017 21/20 A2997 RMK AO2
SLP144 T02060200 402670133





000
SAUS43 KAPX 260355
MTRAPN
METAR KAPN 260354Z AUTO 17004KT 9SM CLR 20/19 A2997 RMK AO2 SLP145
T02000194





000
SAUS43 KAPX 260255
MTRAPN
METAR KAPN 260254Z AUTO 14003KT 7SM CLR 21/19 A2997 RMK AO2 SLP146
T02060194 56006





000
SAUS43 KAPX 260155
MTRAPN
METAR KAPN 260154Z AUTO 16004KT 10SM CLR 21/20 A2998 RMK AO2 SLP150
T02060200





000
SAUS43 KAPX 260055
MTRAPN
METAR KAPN 260054Z AUTO 16006KT 10SM FEW120 22/21 A2997 RMK AO2
SLP147 T02220211





000
SAUS43 KAPX 252356
MTRAPN
METAR KAPN 252354Z AUTO 16005KT 10SM CLR 23/22 A2999 RMK AO2 SLP153
60013 T02330217 10256 20222 51006





000
SAUS43 KAPX 252255
MTRAPN
METAR KAPN 252254Z AUTO 20004KT 10SM CLR 26/22 A2998 RMK AO2 SLP152
T02560222





000
SAUS43 KAPX 252156
MTRAPN
METAR KAPN 252154Z AUTO 21006KT 10SM CLR 26/22 A2998 RMK AO2 SLP150
T02560222





000
SAUS43 KAPX 252055
MTRAPN
METAR KAPN 252054Z AUTO 19009KT 10SM CLR 26/22 A2997 RMK AO2
RAB34E43 SLP147 P0000 60013 T02560222 56027





000
SAUS43 KAPX 251956
MTRAPN
METAR KAPN 251954Z AUTO 20009KT 10SM FEW049 FEW085 SCT110 23/22
A3000 RMK AO2 RAE49 SLP157 P0002 T02330217





000
SAUS43 KAPX 251902
MTRAPN
SPECI KAPN 251901Z AUTO 20017G21KT 6SM -RA BR SCT090 BKN110 23/21
A3002 RMK AO2 LTG DSNT S P0000 T02330211





000
SAUS43 KAPX 251856 COR
MTRAPN
METAR KAPN 251854Z AUTO 20009KT 4SM VCTS -RA BR SCT080 BKN100 BKN120
23/22 A3002 RMK AO2 LTG DSNT S AND SW RAB03 SLP164 P0011 T02330217





000
SAUS43 KAPX 251756 COR
MTRAPN
METAR KAPN 251754Z AUTO 13004KT 10SM VCTS BKN037 OVC048 23/20 A3005
RMK AO2 LTG DSNT SW AND W SLP175 T02330200 10267 20161 56006





000
SAUS43 KAPX 251742
MTRAPN
SPECI KAPN 251741Z AUTO 12006KT 10SM VCTS BKN041 OVC055 24/20 A3005
RMK AO2 LTG DSNT SW AND W T02390200





000
SAUS43 KAPX 251655
MTRAPN
METAR KAPN 251654Z AUTO 18009KT 10SM SCT043 26/20 A3005 RMK AO2 LTG
DSNT W AND NW SLP175 T02610200





000
SAUS43 KAPX 251556 COR
MTRAPN
METAR KAPN 251554Z AUTO 14008KT 10SM SCT050 26/19 A3006 RMK AO2
SLP178 T02560194





000
SAUS43 KAPX 251555
MTRAPN
METAR KAPN 251554Z AUTO 14008KT 10SM SCT050 26/19 A3006 RMK AO2
SLP178 T02560194





000
SAUS43 KAPX 251455
MTRAPN
METAR KAPN 251454Z AUTO 16008KT 10SM BKN033 BKN045 23/19 A3007 RMK
AO2 SLP181 T02330189 56004





000
SAUS43 KAPX 251356
MTRAPN
METAR KAPN 251354Z AUTO 16006KT 10SM FEW031 SCT041 20/18 A3007 RMK
AO2 SLP183 T02000183





000
SAUS43 KAPX 251255
MTRAPN
METAR KAPN 251254Z AUTO 14005KT 6SM BR FEW003 OVC033 18/17 A3007 RMK
AO2 SLP182 T01780172





000
SAUS43 KAPX 251228
MTRAPN
SPECI KAPN 251226Z AUTO 14004KT 5SM BR FEW002 SCT030 17/17 A3008 RMK
AO2 T01720167





000
SAUS43 KAPX 251156
MTRAPN
METAR KAPN 251154Z AUTO 00000KT 5SM BR OVC029 16/16 A3008 RMK AO2
SLP186 T01610161 10172 20133 50000





000
SAUS43 KAPX 251147
MTRAPN
SPECI KAPN 251146Z AUTO 16003KT 6SM BR OVC029 16/16 A3008 RMK AO2
T01610161





000
SAUS43 KAPX 251137
MTRAPN
SPECI KAPN 251136Z AUTO 00000KT 6SM BR SCT003 OVC031 16/16 A3008 RMK
AO2 VIS 2 RY 19 T01560156





000
SAUS43 KAPX 251126
MTRAPN
SPECI KAPN 251124Z AUTO 14003KT 3SM BR BKN003 OVC032 14/14 A3008 RMK
AO2 VIS 1 RY 19 T01390139





000
SAUS43 KAPX 251117
MTRAPN
SPECI KAPN 251116Z AUTO 15004KT 3/4SM BR VV003 14/14 A3009 RMK AO2
VIS 1/4V4 T01390139





000
SAUS43 KAPX 251055
MTRAPN
METAR KAPN 251054Z AUTO 17003KT 1/4SM FG VV002 13/13 A3009 RMK AO2
SLP190 T01330133 TSNO





000
SAUS43 KAPX 251051
MTRAPN
SPECI KAPN 251050Z AUTO 17003KT 1/2SM FG VV002 13/13 A3010 RMK AO2





000
SAUS43 KAPX 251046
MTRAPN
SPECI KAPN 251044Z AUTO 00000KT 2 1/2SM BR OVC002 13/13 A3009 RMK
AO2 VIS 1/4 RY 19 T01330133





000
SAUS43 KAPX 251006
MTRAPN
SPECI KAPN 251005Z AUTO 00000KT 3/4SM BR VV002 14/14 A3009 RMK AO2
T01440139





000
SAUS43 KAPX 251004
MTRAPN
SPECI KAPN 251003Z AUTO 00000KT 1 1/4SM BR SCT003 14/14 A3009 RMK
AO2 T01440144





000
SAUS43 KAPX 250955
MTRAPN
METAR KAPN 250954Z AUTO 00000KT 10SM FEW003 15/14 A3009 RMK AO2 VIS
2 1/2 RY 19 SLP190 T01500144





000
SAUS43 KAPX 250933
MTRAPN
SPECI KAPN 250932Z AUTO 00000KT 7SM CLR 15/14 A3008 RMK AO2
T01500144





000
SAUS43 KAPX 250924
MTRAPN
SPECI KAPN 250923Z AUTO 00000KT 1SM BR CLR 14/14 A3008 RMK AO2
T01440139





000
SAUS43 KAPX 250920
MTRAPN
SPECI KAPN 250918Z AUTO 00000KT 1/4SM FG CLR 14/14 A3008 RMK AO2
T01440144





    US Dept of Commerce
    National Oceanic and Atmospheric Administration
    National Weather Service
    1325 East West Highway
    Silver Spring, MD 20910
    Page Author: NWS Internet Services Team
Disclaimer
Information Quality
Credits
Glossary
Privacy Policy
Freedom of Information Act (FOIA)
About Us
Career Opportunities